sensor_id;sensor_type;location;lat;lon;timestamp;pressure;altitude;pressure_sealevel;temperature;humidity
53522;BME280;39398;48.382;9.802;2023-06-14T00:02:06;93369.66;;;13.13;70.40
53522;BME280;39398;48.382;9.802;2023-06-14T00:07:08;93374.75;;;12.96;71.36
53522;BME280;39398;48.382;9.802;2023-06-14T00:12:13;93382.16;;;12.88;72.14
53522;BME280;39398;48.382;9.802;2023-06-14T00:17:14;93379.56;;;12.81;72.17
53522;BME280;39398;48.382;9.802;2023-06-14T00:22:16;93375.19;;;12.68;72.94
53522;BME280;39398;48.382;9.802;2023-06-14T00:27:19;93374.59;;;12.66;73.01
53522;BME280;39398;48.382;9.802;2023-06-14T00:32:21;93364.50;;;12.56;73.31
53522;BME280;39398;48.382;9.802;2023-06-14T00:37:23;93362.28;;;12.53;73.16
53522;BME280;39398;48.382;9.802;2023-06-14T00:42:27;93378.66;;;12.44;73.77
53522;BME280;39398;48.382;9.802;2023-06-14T00:47:29;93377.63;;;11.88;78.75
53522;BME280;39398;48.382;9.802;2023-06-14T00:52:31;93376.28;;;11.66;80.15
53522;BME280;39398;48.382;9.802;2023-06-14T00:57:34;93369.28;;;11.91;78.03
53522;BME280;39398;48.382;9.802;2023-06-14T01:02:36;93369.94;;;12.12;76.43
53522;BME280;39398;48.382;9.802;2023-06-14T01:07:55;93369.84;;;12.00;76.96
53522;BME280;39398;48.382;9.802;2023-06-14T01:13:07;93378.88;;;11.79;78.25
53522;BME280;39398;48.382;9.802;2023-06-14T01:18:12;93380.72;;;11.78;78.17
53522;BME280;39398;48.382;9.802;2023-06-14T01:23:15;93379.09;;;11.77;78.15
53522;BME280;39398;48.382;9.802;2023-06-14T01:28:17;93374.75;;;11.90;76.80
53522;BME280;39398;48.382;9.802;2023-06-14T01:33:22;93367.91;;;12.14;75.72
53522;BME280;39398;48.382;9.802;2023-06-14T01:38:26;93370.84;;;11.99;76.65
53522;BME280;39398;48.382;9.802;2023-06-14T01:43:29;93358.91;;;11.83;77.96
53522;BME280;39398;48.382;9.802;2023-06-14T01:48:32;93360.41;;;11.72;78.54
53522;BME280;39398;48.382;9.802;2023-06-14T01:53:35;93358.28;;;11.49;79.60
53522;BME280;39398;48.382;9.802;2023-06-14T01:58:37;93359.66;;;11.58;78.62
53522;BME280;39398;48.382;9.802;2023-06-14T02:03:38;93356.88;;;11.47;78.79
53522;BME280;39398;48.382;9.802;2023-06-14T02:08:42;93351.91;;;11.18;82.11
53522;BME280;39398;48.382;9.802;2023-06-14T02:13:43;93352.94;;;11.17;81.81
53522;BME280;39398;48.382;9.802;2023-06-14T02:18:45;93358.25;;;11.04;83.10
53522;BME280;39398;48.382;9.802;2023-06-14T02:23:48;93354.19;;;11.02;83.57
53522;BME280;39398;48.382;9.802;2023-06-14T02:28:50;93363.56;;;10.98;83.76
53522;BME280;39398;48.382;9.802;2023-06-14T02:33:51;93358.75;;;11.26;80.97
53522;BME280;39398;48.382;9.802;2023-06-14T02:38:54;93361.09;;;11.54;79.29
53522;BME280;39398;48.382;9.802;2023-06-14T02:43:56;93358.44;;;11.03;82.92
53522;BME280;39398;48.382;9.802;2023-06-14T02:48:58;93353.47;;;10.55;87.21
53522;BME280;39398;48.382;9.802;2023-06-14T02:54:01;93352.63;;;10.74;86.08
53522;BME280;39398;48.382;9.802;2023-06-14T02:59:03;93363.44;;;10.59;86.70
53522;BME280;39398;48.382;9.802;2023-06-14T03:04:04;93356.53;;;10.52;87.64
53522;BME280;39398;48.382;9.802;2023-06-14T03:09:08;93359.78;;;10.47;88.30
53522;BME280;39398;48.382;9.802;2023-06-14T03:14:09;93359.34;;;10.37;89.49
53522;BME280;39398;48.382;9.802;2023-06-14T03:19:11;93360.16;;;10.24;90.66
53522;BME280;39398;48.382;9.802;2023-06-14T03:24:14;93365.88;;;10.28;90.62
53522;BME280;39398;48.382;9.802;2023-06-14T03:29:16;93365.41;;;10.17;92.44
53522;BME280;39398;48.382;9.802;2023-06-14T03:34:17;93364.63;;;10.17;92.81
53522;BME280;39398;48.382;9.802;2023-06-14T03:39:21;93364.63;;;10.17;93.34
53522;BME280;39398;48.382;9.802;2023-06-14T03:44:22;93365.63;;;9.96;96.24
53522;BME280;39398;48.382;9.802;2023-06-14T03:49:24;93364.38;;;9.92;97.44
53522;BME280;39398;48.382;9.802;2023-06-14T03:54:27;93374.97;;;10.12;96.59
53522;BME280;39398;48.382;9.802;2023-06-14T03:59:49;93382.53;;;10.28;96.94
53522;BME280;39398;48.382;9.802;2023-06-14T04:04:50;93387.78;;;10.28;99.39
53522;BME280;39398;48.382;9.802;2023-06-14T04:09:53;93382.72;;;10.53;97.25
53522;BME280;39398;48.382;9.802;2023-06-14T04:14:55;93389.41;;;10.69;97.67
53522;BME280;39398;48.382;9.802;2023-06-14T04:20:06;93395.06;;;10.79;98.63
53522;BME280;39398;48.382;9.802;2023-06-14T04:25:09;93389.38;;;10.82;100.00
53522;BME280;39398;48.382;9.802;2023-06-14T04:30:11;93401.94;;;10.93;100.00
53522;BME280;39398;48.382;9.802;2023-06-14T04:35:13;93409.25;;;11.05;100.00
53522;BME280;39398;48.382;9.802;2023-06-14T04:40:17;93409.00;;;11.13;100.00
53522;BME280;39398;48.382;9.802;2023-06-14T04:45:19;93413.41;;;11.32;100.00
53522;BME280;39398;48.382;9.802;2023-06-14T04:50:21;93419.66;;;11.51;100.00
53522;BME280;39398;48.382;9.802;2023-06-14T04:55:24;93425.69;;;11.72;100.00
53522;BME280;39398;48.382;9.802;2023-06-14T05:00:25;93434.59;;;11.84;100.00
53522;BME280;39398;48.382;9.802;2023-06-14T05:05:27;93432.44;;;12.06;100.00
53522;BME280;39398;48.382;9.802;2023-06-14T05:10:30;93434.63;;;12.22;100.00
53522;BME280;39398;48.382;9.802;2023-06-14T05:15:31;93439.78;;;12.42;100.00
53522;BME280;39398;48.382;9.802;2023-06-14T05:20:33;93434.13;;;12.64;95.95
53522;BME280;39398;48.382;9.802;2023-06-14T05:25:36;93434.81;;;12.77;95.42
53522;BME280;39398;48.382;9.802;2023-06-14T05:30:38;93432.72;;;13.04;90.13
53522;BME280;39398;48.382;9.802;2023-06-14T05:35:40;93438.88;;;13.05;95.43
53522;BME280;39398;48.382;9.802;2023-06-14T05:40:43;93443.06;;;13.13;90.99
53522;BME280;39398;48.382;9.802;2023-06-14T05:45:45;93439.91;;;13.22;90.17
53522;BME280;39398;48.382;9.802;2023-06-14T05:50:46;93444.97;;;13.49;92.92
53522;BME280;39398;48.382;9.802;2023-06-14T05:55:50;93443.84;;;13.75;95.51
53522;BME280;39398;48.382;9.802;2023-06-14T06:00:51;93449.44;;;13.85;89.39
53522;BME280;39398;48.382;9.802;2023-06-14T06:05:53;93452.38;;;13.95;90.50
53522;BME280;39398;48.382;9.802;2023-06-14T06:10:56;93453.47;;;14.36;86.23
53522;BME280;39398;48.382;9.802;2023-06-14T06:15:57;93456.94;;;14.67;84.08
53522;BME280;39398;48.382;9.802;2023-06-14T06:21:00;93456.25;;;14.83;88.49
53522;BME280;39398;48.382;9.802;2023-06-14T06:26:04;93465.56;;;15.04;83.91
53522;BME280;39398;48.382;9.802;2023-06-14T06:31:05;93462.06;;;15.63;81.38
53522;BME280;39398;48.382;9.802;2023-06-14T06:36:07;93471.78;;;15.92;82.73
53522;BME280;39398;48.382;9.802;2023-06-14T06:41:12;93475.75;;;16.18;86.06
53522;BME280;39398;48.382;9.802;2023-06-14T06:46:14;93473.88;;;15.78;84.09
53522;BME280;39398;48.382;9.802;2023-06-14T06:51:16;93479.03;;;16.09;82.79
53522;BME280;39398;48.382;9.802;2023-06-14T06:56:19;93485.75;;;17.14;79.84
53522;BME280;39398;48.382;9.802;2023-06-14T07:01:20;93478.25;;;17.66;75.61
53522;BME280;39398;48.382;9.802;2023-06-14T07:06:22;93474.94;;;17.59;77.15
53522;BME280;39398;48.382;9.802;2023-06-14T07:11:25;93487.91;;;18.06;72.62
53522;BME280;39398;48.382;9.802;2023-06-14T07:16:27;93496.28;;;18.15;77.44
53522;BME280;39398;48.382;9.802;2023-06-14T07:21:28;93504.78;;;17.90;85.90
53522;BME280;39398;48.382;9.802;2023-06-14T07:26:31;93509.13;;;18.18;77.41
53522;BME280;39398;48.382;9.802;2023-06-14T07:31:33;93511.06;;;18.23;73.97
53522;BME280;39398;48.382;9.802;2023-06-14T07:36:35;93517.97;;;17.97;84.05
53522;BME280;39398;48.382;9.802;2023-06-14T07:41:38;93510.22;;;17.78;81.81
53522;BME280;39398;48.382;9.802;2023-06-14T07:46:39;93515.78;;;17.94;83.49
53522;BME280;39398;48.382;9.802;2023-06-14T07:51:41;93520.56;;;18.57;72.14
53522;BME280;39398;48.382;9.802;2023-06-14T07:56:45;93521.31;;;18.53;75.60
53522;BME280;39398;48.382;9.802;2023-06-14T08:01:47;93520.28;;;19.35;71.80
53522;BME280;39398;48.382;9.802;2023-06-14T08:06:48;93516.94;;;19.55;73.48
53522;BME280;39398;48.382;9.802;2023-06-14T08:11:51;93524.84;;;20.14;69.56
53522;BME280;39398;48.382;9.802;2023-06-14T08:16:53;93522.97;;;20.73;60.92
53522;BME280;39398;48.382;9.802;2023-06-14T08:21:54;93531.03;;;20.83;63.17
53522;BME280;39398;48.382;9.802;2023-06-14T08:26:57;93531.63;;;20.27;66.97
53522;BME280;39398;48.382;9.802;2023-06-14T08:31:59;93538.00;;;20.69;68.37
53522;BME280;39398;48.382;9.802;2023-06-14T08:37:01;93545.31;;;20.99;57.67
53522;BME280;39398;48.382;9.802;2023-06-14T08:42:05;93526.09;;;19.96;68.88
53522;BME280;39398;48.382;9.802;2023-06-14T08:47:17;93540.84;;;19.99;66.74
53522;BME280;39398;48.382;9.802;2023-06-14T08:52:21;93547.31;;;21.70;50.87
53522;BME280;39398;48.382;9.802;2023-06-14T08:57:25;93543.94;;;20.23;64.91
53522;BME280;39398;48.382;9.802;2023-06-14T09:02:27;93538.66;;;22.19;45.71
53522;BME280;39398;48.382;9.802;2023-06-14T09:07:29;93548.31;;;21.28;51.72
53522;BME280;39398;48.382;9.802;2023-06-14T09:12:32;93545.31;;;22.42;44.64
53522;BME280;39398;48.382;9.802;2023-06-14T09:17:34;93543.69;;;22.51;45.19
53522;BME280;39398;48.382;9.802;2023-06-14T09:22:36;93557.19;;;21.23;61.58
53522;BME280;39398;48.382;9.802;2023-06-14T09:27:39;93555.91;;;21.77;52.70
53522;BME280;39398;48.382;9.802;2023-06-14T09:32:41;93569.53;;;21.29;57.77
53522;BME280;39398;48.382;9.802;2023-06-14T09:37:43;93564.50;;;21.48;57.35
53522;BME280;39398;48.382;9.802;2023-06-14T09:42:47;93563.41;;;21.85;52.31
53522;BME280;39398;48.382;9.802;2023-06-14T09:47:49;93559.88;;;22.25;48.36
53522;BME280;39398;48.382;9.802;2023-06-14T09:53:07;93556.03;;;22.52;48.48
53522;BME280;39398;48.382;9.802;2023-06-14T09:58:14;93553.78;;;22.80;51.85
53522;BME280;39398;48.382;9.802;2023-06-14T10:03:21;93558.63;;;22.83;49.63
53522;BME280;39398;48.382;9.802;2023-06-14T10:08:27;93552.50;;;22.67;47.51
53522;BME280;39398;48.382;9.802;2023-06-14T10:13:31;93554.28;;;21.61;45.36
53522;BME280;39398;48.382;9.802;2023-06-14T10:18:42;93551.00;;;21.33;58.86
53522;BME280;39398;48.382;9.802;2023-06-14T10:23:47;93550.44;;;22.33;44.91
53522;BME280;39398;48.382;9.802;2023-06-14T10:28:59;93545.88;;;22.44;42.55
53522;BME280;39398;48.382;9.802;2023-06-14T10:34:01;93554.72;;;22.44;51.34
53522;BME280;39398;48.382;9.802;2023-06-14T10:39:06;93551.63;;;22.82;42.43
53522;BME280;39398;48.382;9.802;2023-06-14T10:44:35;93548.28;;;23.50;41.37
53522;BME280;39398;48.382;9.802;2023-06-14T10:49:41;93547.06;;;23.32;39.14
53522;BME280;39398;48.382;9.802;2023-06-14T10:55:07;93538.53;;;24.22;40.62
53522;BME280;39398;48.382;9.802;2023-06-14T11:00:12;93534.59;;;21.09;47.94
53522;BME280;39398;48.382;9.802;2023-06-14T11:05:15;93538.78;;;22.63;44.03
53522;BME280;39398;48.382;9.802;2023-06-14T11:10:26;93533.09;;;23.64;41.28
53522;BME280;39398;48.382;9.802;2023-06-14T11:15:35;93537.47;;;23.15;41.38
53522;BME280;39398;48.382;9.802;2023-06-14T11:20:37;93534.88;;;23.00;52.95
53522;BME280;39398;48.382;9.802;2023-06-14T11:25:38;93530.25;;;23.11;41.63
53522;BME280;39398;48.382;9.802;2023-06-14T11:30:41;93539.50;;;21.83;48.13
53522;BME280;39398;48.382;9.802;2023-06-14T11:35:43;93548.56;;;21.21;57.06
53522;BME280;39398;48.382;9.802;2023-06-14T11:40:45;93525.47;;;22.17;52.75
53522;BME280;39398;48.382;9.802;2023-06-14T11:45:49;93531.72;;;21.56;58.61
53522;BME280;39398;48.382;9.802;2023-06-14T11:51:08;93536.53;;;21.85;63.63
53522;BME280;39398;48.382;9.802;2023-06-14T11:56:10;93539.78;;;22.78;49.98
53522;BME280;39398;48.382;9.802;2023-06-14T12:01:16;93537.00;;;23.03;46.96
53522;BME280;39398;48.382;9.802;2023-06-14T12:06:26;93533.75;;;22.46;45.23
53522;BME280;39398;48.382;9.802;2023-06-14T12:11:32;93540.31;;;21.84;49.74
53522;BME280;39398;48.382;9.802;2023-06-14T12:16:37;93529.38;;;22.66;53.05
53522;BME280;39398;48.382;9.802;2023-06-14T12:21:40;93530.22;;;22.46;49.68
53522;BME280;39398;48.382;9.802;2023-06-14T12:26:42;93526.56;;;22.06;55.85
53522;BME280;39398;48.382;9.802;2023-06-14T12:31:45;93524.91;;;22.41;55.28
53522;BME280;39398;48.382;9.802;2023-06-14T12:36:47;93522.28;;;22.80;45.76
53522;BME280;39398;48.382;9.802;2023-06-14T12:41:49;93532.28;;;23.63;47.58
53522;BME280;39398;48.382;9.802;2023-06-14T12:46:52;93540.28;;;22.20;47.08
53522;BME280;39398;48.382;9.802;2023-06-14T12:51:53;93535.81;;;22.70;54.67
53522;BME280;39398;48.382;9.802;2023-06-14T12:56:55;93539.56;;;23.63;42.90
53522;BME280;39398;48.382;9.802;2023-06-14T13:01:59;93541.34;;;23.38;47.34
53522;BME280;39398;48.382;9.802;2023-06-14T13:07:01;93544.31;;;22.02;51.26
53522;BME280;39398;48.382;9.802;2023-06-14T13:12:03;93540.25;;;22.10;62.01
53522;BME280;39398;48.382;9.802;2023-06-14T13:17:07;93543.00;;;21.48;61.50
53522;BME280;39398;48.382;9.802;2023-06-14T13:22:09;93551.88;;;21.74;54.96
53522;BME280;39398;48.382;9.802;2023-06-14T13:27:11;93536.78;;;22.24;44.90
53522;BME280;39398;48.382;9.802;2023-06-14T13:32:14;93535.69;;;23.01;54.84
53522;BME280;39398;48.382;9.802;2023-06-14T13:37:16;93538.41;;;22.95;43.54
53522;BME280;39398;48.382;9.802;2023-06-14T13:42:18;93532.38;;;23.14;42.20
53522;BME280;39398;48.382;9.802;2023-06-14T13:47:21;93528.50;;;23.70;49.60
53522;BME280;39398;48.382;9.802;2023-06-14T13:52:22;93523.69;;;21.41;53.70
53522;BME280;39398;48.382;9.802;2023-06-14T13:57:24;93536.97;;;20.27;55.99
53522;BME280;39398;48.382;9.802;2023-06-14T14:02:27;93528.94;;;20.27;54.57
53522;BME280;39398;48.382;9.802;2023-06-14T14:07:29;93531.16;;;21.29;55.74
53522;BME280;39398;48.382;9.802;2023-06-14T14:12:31;93537.53;;;22.30;52.11
53522;BME280;39398;48.382;9.802;2023-06-14T14:17:33;93531.78;;;22.67;47.38
53522;BME280;39398;48.382;9.802;2023-06-14T14:22:35;93525.47;;;22.97;47.16
53522;BME280;39398;48.382;9.802;2023-06-14T14:27:37;93524.19;;;22.80;47.53
53522;BME280;39398;48.382;9.802;2023-06-14T14:32:40;93519.03;;;22.13;49.52
53522;BME280;39398;48.382;9.802;2023-06-14T14:37:42;93526.72;;;23.15;42.56
53522;BME280;39398;48.382;9.802;2023-06-14T14:42:43;93528.72;;;22.94;45.50
53522;BME280;39398;48.382;9.802;2023-06-14T14:47:46;93533.31;;;21.83;51.03
53522;BME280;39398;48.382;9.802;2023-06-14T14:52:48;93535.88;;;22.55;54.52
53522;BME280;39398;48.382;9.802;2023-06-14T14:57:50;93530.38;;;21.79;56.55
53522;BME280;39398;48.382;9.802;2023-06-14T15:02:53;93535.75;;;21.74;56.08
53522;BME280;39398;48.382;9.802;2023-06-14T15:07:55;93534.50;;;22.62;52.87
53522;BME280;39398;48.382;9.802;2023-06-14T15:12:56;93541.72;;;23.27;43.19
53522;BME280;39398;48.382;9.802;2023-06-14T15:18:00;93535.75;;;22.85;51.54
53522;BME280;39398;48.382;9.802;2023-06-14T15:23:01;93542.69;;;22.01;56.42
53522;BME280;39398;48.382;9.802;2023-06-14T15:28:03;93543.00;;;21.69;59.50
53522;BME280;39398;48.382;9.802;2023-06-14T15:33:06;93545.88;;;21.06;55.79
53522;BME280;39398;48.382;9.802;2023-06-14T15:38:08;93546.19;;;21.30;52.24
53522;BME280;39398;48.382;9.802;2023-06-14T15:43:10;93548.06;;;21.86;58.61
53522;BME280;39398;48.382;9.802;2023-06-14T15:48:13;93542.16;;;22.19;55.36
53522;BME280;39398;48.382;9.802;2023-06-14T15:53:14;93543.25;;;21.77;49.23
53522;BME280;39398;48.382;9.802;2023-06-14T15:58:16;93535.44;;;22.01;46.84
53522;BME280;39398;48.382;9.802;2023-06-14T16:03:19;93534.78;;;20.77;57.13
53522;BME280;39398;48.382;9.802;2023-06-14T16:08:21;93539.09;;;20.25;59.06
53522;BME280;39398;48.382;9.802;2023-06-14T16:13:41;93549.44;;;21.42;54.55
53522;BME280;39398;48.382;9.802;2023-06-14T16:18:45;93549.94;;;21.19;61.83
53522;BME280;39398;48.382;9.802;2023-06-14T16:23:46;93559.00;;;20.97;57.14
53522;BME280;39398;48.382;9.802;2023-06-14T16:28:48;93552.50;;;20.20;59.90
53522;BME280;39398;48.382;9.802;2023-06-14T16:33:51;93558.16;;;20.24;61.97
53522;BME280;39398;48.382;9.802;2023-06-14T16:38:53;93564.16;;;20.04;58.37
53522;BME280;39398;48.382;9.802;2023-06-14T16:43:54;93562.09;;;20.16;58.84
53522;BME280;39398;48.382;9.802;2023-06-14T16:48:57;93573.63;;;20.16;61.57
53522;BME280;39398;48.382;9.802;2023-06-14T16:53:59;93580.13;;;20.26;62.10
53522;BME280;39398;48.382;9.802;2023-06-14T16:59:01;93577.75;;;20.92;62.30
53522;BME280;39398;48.382;9.802;2023-06-14T17:04:04;93574.75;;;20.73;59.05
53522;BME280;39398;48.382;9.802;2023-06-14T17:09:06;93578.56;;;20.93;54.43
53522;BME280;39398;48.382;9.802;2023-06-14T17:14:08;93580.88;;;20.63;54.85
53522;BME280;39398;48.382;9.802;2023-06-14T17:19:11;93587.16;;;20.42;59.33
53522;BME280;39398;48.382;9.802;2023-06-14T17:24:13;93598.34;;;20.29;58.64
53522;BME280;39398;48.382;9.802;2023-06-14T17:29:27;93600.69;;;20.57;53.56
53522;BME280;39398;48.382;9.802;2023-06-14T17:34:29;93606.22;;;20.40;53.98
53522;BME280;39398;48.382;9.802;2023-06-14T17:39:31;93619.78;;;20.24;57.61
53522;BME280;39398;48.382;9.802;2023-06-14T17:44:33;93612.78;;;20.17;60.42
53522;BME280;39398;48.382;9.802;2023-06-14T17:49:36;93617.81;;;19.77;55.47
53522;BME280;39398;48.382;9.802;2023-06-14T17:54:38;93632.13;;;20.25;61.41
53522;BME280;39398;48.382;9.802;2023-06-14T17:59:40;93628.53;;;19.49;62.19
53522;BME280;39398;48.382;9.802;2023-06-14T18:04:43;93620.41;;;19.12;61.13
53522;BME280;39398;48.382;9.802;2023-06-14T18:09:44;93629.81;;;18.71;64.26
53522;BME280;39398;48.382;9.802;2023-06-14T18:14:46;93635.94;;;18.71;62.36
53522;BME280;39398;48.382;9.802;2023-06-14T18:19:49;93647.28;;;18.78;65.00
53522;BME280;39398;48.382;9.802;2023-06-14T18:24:51;93644.72;;;19.11;63.72
53522;BME280;39398;48.382;9.802;2023-06-14T18:29:52;93651.63;;;19.28;62.92
53522;BME280;39398;48.382;9.802;2023-06-14T18:34:55;93650.66;;;19.13;65.52
53522;BME280;39398;48.382;9.802;2023-06-14T18:39:57;93655.50;;;18.94;62.97
53522;BME280;39398;48.382;9.802;2023-06-14T18:44:59;93655.56;;;18.77;64.01
53522;BME280;39398;48.382;9.802;2023-06-14T18:50:02;93661.06;;;18.87;64.10
53522;BME280;39398;48.382;9.802;2023-06-14T18:55:04;93657.06;;;19.12;62.67
53522;BME280;39398;48.382;9.802;2023-06-14T19:00:07;93664.97;;;18.79;63.75
53522;BME280;39398;48.382;9.802;2023-06-14T19:05:10;93660.63;;;18.95;64.21
53522;BME280;39398;48.382;9.802;2023-06-14T19:10:12;93669.47;;;18.96;62.51
53522;BME280;39398;48.382;9.802;2023-06-14T19:15:14;93677.53;;;18.06;67.77
53522;BME280;39398;48.382;9.802;2023-06-14T19:20:17;93679.88;;;17.86;68.50
53522;BME280;39398;48.382;9.802;2023-06-14T19:25:19;93683.16;;;17.76;70.02
53522;BME280;39398;48.382;9.802;2023-06-14T19:30:21;93698.00;;;18.01;68.95
53522;BME280;39398;48.382;9.802;2023-06-14T19:35:24;93696.22;;;17.89;69.83
53522;BME280;39398;48.382;9.802;2023-06-14T19:40:26;93707.16;;;17.88;69.82
53522;BME280;39398;48.382;9.802;2023-06-14T19:45:28;93711.13;;;17.57;72.69
53522;BME280;39398;48.382;9.802;2023-06-14T19:50:33;93717.41;;;17.51;72.89
53522;BME280;39398;48.382;9.802;2023-06-14T19:55:34;93719.16;;;17.16;74.92
53522;BME280;39398;48.382;9.802;2023-06-14T20:00:36;93730.69;;;17.05;75.85
53522;BME280;39398;48.382;9.802;2023-06-14T20:05:39;93731.50;;;16.59;78.16
53522;BME280;39398;48.382;9.802;2023-06-14T20:10:41;93736.50;;;16.55;78.80
53522;BME280;39398;48.382;9.802;2023-06-14T20:15:43;93739.06;;;16.50;79.33
53522;BME280;39398;48.382;9.802;2023-06-14T20:20:48;93745.19;;;16.74;77.87
53522;BME280;39398;48.382;9.802;2023-06-14T20:25:50;93740.69;;;16.51;78.75
53522;BME280;39398;48.382;9.802;2023-06-14T20:30:53;93744.84;;;16.23;80.25
53522;BME280;39398;48.382;9.802;2023-06-14T20:35:56;93742.41;;;16.22;80.32
53522;BME280;39398;48.382;9.802;2023-06-14T20:40:58;93747.16;;;16.08;82.09
53522;BME280;39398;48.382;9.802;2023-06-14T20:46:00;93747.03;;;16.26;80.82
53522;BME280;39398;48.382;9.802;2023-06-14T20:51:04;93745.50;;;16.07;81.26
53522;BME280;39398;48.382;9.802;2023-06-14T20:56:05;93753.16;;;16.03;83.24
53522;BME280;39398;48.382;9.802;2023-06-14T21:01:07;93758.19;;;15.81;82.92
53522;BME280;39398;48.382;9.802;2023-06-14T21:06:10;93746.66;;;15.57;84.21
53522;BME280;39398;48.382;9.802;2023-06-14T21:11:12;93746.88;;;15.56;84.24
53522;BME280;39398;48.382;9.802;2023-06-14T21:16:14;93756.34;;;15.52;84.62
53522;BME280;39398;48.382;9.802;2023-06-14T21:21:17;93753.00;;;15.26;85.68
53522;BME280;39398;48.382;9.802;2023-06-14T21:26:19;93747.94;;;15.06;87.70
53522;BME280;39398;48.382;9.802;2023-06-14T21:31:20;93743.72;;;14.80;89.85
53522;BME280;39398;48.382;9.802;2023-06-14T21:36:23;93742.38;;;15.08;88.02
53522;BME280;39398;48.382;9.802;2023-06-14T21:41:25;93746.97;;;15.01;89.31
53522;BME280;39398;48.382;9.802;2023-06-14T21:46:29;93753.47;;;14.86;91.28
53522;BME280;39398;48.382;9.802;2023-06-14T21:51:32;93749.91;;;14.56;91.97
53522;BME280;39398;48.382;9.802;2023-06-14T21:56:34;93754.72;;;14.65;91.10
53522;BME280;39398;48.382;9.802;2023-06-14T22:01:35;93751.19;;;14.72;91.24
53522;BME280;39398;48.382;9.802;2023-06-14T22:06:38;93755.38;;;14.79;90.55
53522;BME280;39398;48.382;9.802;2023-06-14T22:11:41;93754.72;;;14.40;93.20
53522;BME280;39398;48.382;9.802;2023-06-14T22:16:43;93762.84;;;14.52;92.39
53522;BME280;39398;48.382;9.802;2023-06-14T22:21:46;93757.22;;;14.35;93.45
53522;BME280;39398;48.382;9.802;2023-06-14T22:26:47;93762.47;;;14.67;91.41
53522;BME280;39398;48.382;9.802;2023-06-14T22:31:49;93757.16;;;14.42;92.99
53522;BME280;39398;48.382;9.802;2023-06-14T22:36:52;93754.75;;;14.15;94.68
53522;BME280;39398;48.382;9.802;2023-06-14T22:41:54;93750.84;;;13.93;96.43
53522;BME280;39398;48.382;9.802;2023-06-14T22:46:56;93746.50;;;13.73;98.05
53522;BME280;39398;48.382;9.802;2023-06-14T22:51:59;93748.00;;;13.94;96.49
53522;BME280;39398;48.382;9.802;2023-06-14T22:57:00;93756.28;;;14.05;95.87
53522;BME280;39398;48.382;9.802;2023-06-14T23:02:02;93744.28;;;13.70;98.15
53522;BME280;39398;48.382;9.802;2023-06-14T23:07:06;93751.13;;;13.85;96.96
53522;BME280;39398;48.382;9.802;2023-06-14T23:12:08;93749.22;;;13.92;96.44
53522;BME280;39398;48.382;9.802;2023-06-14T23:17:10;93749.66;;;13.57;98.78
53522;BME280;39398;48.382;9.802;2023-06-14T23:22:13;93746.91;;;13.39;100.00
53522;BME280;39398;48.382;9.802;2023-06-14T23:27:14;93745.97;;;13.20;100.00
53522;BME280;39398;48.382;9.802;2023-06-14T23:32:16;93743.22;;;13.40;100.00
53522;BME280;39398;48.382;9.802;2023-06-14T23:37:19;93747.06;;;13.51;99.95
53522;BME280;39398;48.382;9.802;2023-06-14T23:42:21;93744.69;;;13.67;98.53
53522;BME280;39398;48.382;9.802;2023-06-14T23:47:23;93748.53;;;13.40;99.96
53522;BME280;39398;48.382;9.802;2023-06-14T23:52:28;93746.88;;;13.45;99.73
53522;BME280;39398;48.382;9.802;2023-06-14T23:57:30;93746.44;;;13.03;100.00
